Startpagina
METAR-TAF:

METAR-TAF

Vliegvelden :

Erzurum, Turkije

breedte: 39-55N, lengte: 041-16E, hoogte: 1756 m

Actueel weer

Dit bericht is 30 minuten geleden gemaakt, om 22:50 UTC
Wind 4 kt uit het westnoordwesten
Temperatuur 6°C
Vochtigheid 75%
Druk 1025 hPa
Zicht 10 km of meer
geen wolken onder 1500 m en geen cumulonimbus

METAR: LTCE 052250Z 29004KT CAVOK 06/02 Q1025 NOSIG RMK RWY08R 01001KT RWY26R 28003KT RWY08L VRB01KT

Tijdstip: 02:20 (23:20 UTC)

Verwachting

Dit bericht is 6 uur en het 40 minuten geleden gemaakt, om 16:40 UTC
Verwachting geldig van 05 om 18 UTC tot 06 om 18 UTC
Wind 2 kt uit variabele richting
Zicht 10 km of meer
Weinig wolken op 3500 ft
Verspreide wolken op 8000 ft
Wijzigt naar
van 05 om 18 UTC tot 05 om 20 UTC
Zicht 10 km of meer
geen wolken onder 1500 m en geen cumulonimbus
Wijzigt naar
van 06 om 07 UTC tot 06 om 09 UTC
Weinig wolken op 3500 ft

TAF: LTCE 051640Z 0518/0618 VRB02KT 9999 FEW035 SCT080 BECMG 0518/0520 CAVOK BECMG 0607/0609 FEW035

Waarnemingen en weersverwachtingen van meer dan 4000 vliegvelden (METAR en TAF).

De beschikbare stations zijn de gele en rode punten op de kaart.

Ga met uw muis naar het station om de naam te zien.

Klik dan om waarnemingen en weersverwachtingen te zien.

kaart wijzigen: klik op de groene knoppen met een zwart kruis om in te zoomen, op de groene knop met een streepje om uit te zoomen of op de groene pijlen voor aangrenzende kaarten.


METAR-TAF: